sensor_id;sensor_type;location;lat;lon;timestamp;P1;durP1;ratioP1;P2;durP2;ratioP2
11191;SDS011;5652;48.406;10.820;2023-04-25T00:00:51;4.25;;;3.60;;
11191;SDS011;5652;48.406;10.820;2023-04-25T00:03:18;5.33;;;3.53;;
11191;SDS011;5652;48.406;10.820;2023-04-25T00:05:46;5.70;;;3.90;;
11191;SDS011;5652;48.406;10.820;2023-04-25T00:08:13;5.65;;;3.55;;
11191;SDS011;5652;48.406;10.820;2023-04-25T00:10:42;5.00;;;3.70;;
11191;SDS011;5652;48.406;10.820;2023-04-25T00:13:09;4.30;;;3.47;;
11191;SDS011;5652;48.406;10.820;2023-04-25T00:15:36;5.35;;;3.90;;
11191;SDS011;5652;48.406;10.820;2023-04-25T00:18:03;5.85;;;3.65;;
11191;SDS011;5652;48.406;10.820;2023-04-25T00:20:31;5.55;;;3.80;;
11191;SDS011;5652;48.406;10.820;2023-04-25T00:22:58;7.10;;;4.13;;
11191;SDS011;5652;48.406;10.820;2023-04-25T00:25:25;4.00;;;3.47;;
11191;SDS011;5652;48.406;10.820;2023-04-25T00:27:54;5.05;;;3.42;;
11191;SDS011;5652;48.406;10.820;2023-04-25T00:30:21;5.65;;;3.80;;
11191;SDS011;5652;48.406;10.820;2023-04-25T00:32:48;5.03;;;3.58;;
11191;SDS011;5652;48.406;10.820;2023-04-25T00:35:15;5.47;;;3.60;;
11191;SDS011;5652;48.406;10.820;2023-04-25T00:37:42;4.15;;;3.60;;
11191;SDS011;5652;48.406;10.820;2023-04-25T00:40:10;8.23;;;3.85;;
11191;SDS011;5652;48.406;10.820;2023-04-25T00:42:37;4.47;;;3.40;;
11191;SDS011;5652;48.406;10.820;2023-04-25T00:45:06;4.43;;;3.92;;
11191;SDS011;5652;48.406;10.820;2023-04-25T00:47:35;6.70;;;4.20;;
11191;SDS011;5652;48.406;10.820;2023-04-25T00:50:03;5.00;;;3.67;;
11191;SDS011;5652;48.406;10.820;2023-04-25T00:52:30;6.30;;;3.70;;
11191;SDS011;5652;48.406;10.820;2023-04-25T00:54:58;5.38;;;3.60;;
11191;SDS011;5652;48.406;10.820;2023-04-25T00:57:26;5.43;;;3.53;;
11191;SDS011;5652;48.406;10.820;2023-04-25T00:59:53;3.95;;;3.40;;
11191;SDS011;5652;48.406;10.820;2023-04-25T01:02:22;5.00;;;3.72;;
11191;SDS011;5652;48.406;10.820;2023-04-25T01:04:50;5.03;;;3.60;;
11191;SDS011;5652;48.406;10.820;2023-04-25T01:07:17;4.68;;;3.92;;
11191;SDS011;5652;48.406;10.820;2023-04-25T01:09:45;4.43;;;3.72;;
11191;SDS011;5652;48.406;10.820;2023-04-25T01:12:12;4.65;;;3.85;;
11191;SDS011;5652;48.406;10.820;2023-04-25T01:14:40;8.70;;;4.22;;
11191;SDS011;5652;48.406;10.820;2023-04-25T01:17:07;4.45;;;3.70;;
11191;SDS011;5652;48.406;10.820;2023-04-25T01:19:36;5.22;;;4.30;;
11191;SDS011;5652;48.406;10.820;2023-04-25T01:22:05;5.40;;;3.97;;
11191;SDS011;5652;48.406;10.820;2023-04-25T01:24:32;6.40;;;4.33;;
11191;SDS011;5652;48.406;10.820;2023-04-25T01:26:59;5.60;;;4.20;;
11191;SDS011;5652;48.406;10.820;2023-04-25T01:29:27;6.75;;;3.97;;
11191;SDS011;5652;48.406;10.820;2023-04-25T01:31:54;5.25;;;4.07;;
11191;SDS011;5652;48.406;10.820;2023-04-25T01:34:23;6.07;;;4.13;;
11191;SDS011;5652;48.406;10.820;2023-04-25T01:36:50;6.45;;;4.13;;
11191;SDS011;5652;48.406;10.820;2023-04-25T01:39:20;6.05;;;4.25;;
11191;SDS011;5652;48.406;10.820;2023-04-25T01:41:48;6.00;;;4.78;;
11191;SDS011;5652;48.406;10.820;2023-04-25T01:44:15;6.70;;;4.57;;
11191;SDS011;5652;48.406;10.820;2023-04-25T01:46:42;6.82;;;4.60;;
11191;SDS011;5652;48.406;10.820;2023-04-25T01:49:10;5.47;;;4.70;;
11191;SDS011;5652;48.406;10.820;2023-04-25T01:51:37;5.22;;;4.72;;
11191;SDS011;5652;48.406;10.820;2023-04-25T01:54:04;6.32;;;4.70;;
11191;SDS011;5652;48.406;10.820;2023-04-25T01:56:32;6.05;;;4.65;;
11191;SDS011;5652;48.406;10.820;2023-04-25T01:58:59;6.38;;;4.75;;
11191;SDS011;5652;48.406;10.820;2023-04-25T02:01:27;6.15;;;4.15;;
11191;SDS011;5652;48.406;10.820;2023-04-25T02:03:54;5.00;;;4.10;;
11191;SDS011;5652;48.406;10.820;2023-04-25T02:06:21;5.75;;;5.10;;
11191;SDS011;5652;48.406;10.820;2023-04-25T02:08:48;6.93;;;5.63;;
11191;SDS011;5652;48.406;10.820;2023-04-25T02:11:15;7.32;;;5.35;;
11191;SDS011;5652;48.406;10.820;2023-04-25T02:13:43;7.13;;;5.22;;
11191;SDS011;5652;48.406;10.820;2023-04-25T02:16:10;6.60;;;5.07;;
11191;SDS011;5652;48.406;10.820;2023-04-25T02:18:38;7.83;;;4.97;;
11191;SDS011;5652;48.406;10.820;2023-04-25T02:21:05;5.65;;;4.80;;
11191;SDS011;5652;48.406;10.820;2023-04-25T02:23:32;6.20;;;4.40;;
11191;SDS011;5652;48.406;10.820;2023-04-25T02:25:59;7.38;;;4.40;;
11191;SDS011;5652;48.406;10.820;2023-04-25T02:28:27;6.35;;;4.63;;
11191;SDS011;5652;48.406;10.820;2023-04-25T02:30:55;5.65;;;4.47;;
11191;SDS011;5652;48.406;10.820;2023-04-25T02:33:23;5.15;;;4.40;;
11191;SDS011;5652;48.406;10.820;2023-04-25T02:35:50;5.07;;;4.18;;
11191;SDS011;5652;48.406;10.820;2023-04-25T02:38:17;5.43;;;4.28;;
11191;SDS011;5652;48.406;10.820;2023-04-25T02:40:44;4.60;;;4.10;;
11191;SDS011;5652;48.406;10.820;2023-04-25T02:43:11;6.00;;;4.85;;
11191;SDS011;5652;48.406;10.820;2023-04-25T02:45:38;6.70;;;4.57;;
11191;SDS011;5652;48.406;10.820;2023-04-25T02:48:06;5.22;;;4.70;;
11191;SDS011;5652;48.406;10.820;2023-04-25T02:50:33;5.95;;;5.13;;
11191;SDS011;5652;48.406;10.820;2023-04-25T02:53:01;7.43;;;4.95;;
11191;SDS011;5652;48.406;10.820;2023-04-25T02:55:28;6.28;;;4.63;;
11191;SDS011;5652;48.406;10.820;2023-04-25T02:57:55;5.85;;;4.25;;
11191;SDS011;5652;48.406;10.820;2023-04-25T03:00:22;4.53;;;4.13;;
11191;SDS011;5652;48.406;10.820;2023-04-25T03:02:49;5.57;;;4.68;;
11191;SDS011;5652;48.406;10.820;2023-04-25T03:05:18;6.90;;;4.20;;
11191;SDS011;5652;48.406;10.820;2023-04-25T03:07:46;6.43;;;4.00;;
11191;SDS011;5652;48.406;10.820;2023-04-25T03:10:13;6.57;;;3.80;;
11191;SDS011;5652;48.406;10.820;2023-04-25T03:12:40;5.45;;;3.78;;
11191;SDS011;5652;48.406;10.820;2023-04-25T03:15:07;6.47;;;3.90;;
11191;SDS011;5652;48.406;10.820;2023-04-25T03:17:34;4.18;;;3.25;;
11191;SDS011;5652;48.406;10.820;2023-04-25T03:20:01;4.18;;;3.50;;
11191;SDS011;5652;48.406;10.820;2023-04-25T03:22:31;5.75;;;3.40;;
11191;SDS011;5652;48.406;10.820;2023-04-25T03:24:59;5.13;;;3.25;;
11191;SDS011;5652;48.406;10.820;2023-04-25T03:27:26;4.72;;;3.30;;
11191;SDS011;5652;48.406;10.820;2023-04-25T03:29:53;5.65;;;3.10;;
11191;SDS011;5652;48.406;10.820;2023-04-25T03:32:20;7.47;;;3.60;;
11191;SDS011;5652;48.406;10.820;2023-04-25T03:34:47;4.70;;;3.20;;
11191;SDS011;5652;48.406;10.820;2023-04-25T03:37:14;5.32;;;3.50;;
11191;SDS011;5652;48.406;10.820;2023-04-25T03:39:43;6.50;;;3.60;;
11191;SDS011;5652;48.406;10.820;2023-04-25T03:42:10;5.10;;;3.60;;
11191;SDS011;5652;48.406;10.820;2023-04-25T03:44:37;4.37;;;3.50;;
11191;SDS011;5652;48.406;10.820;2023-04-25T03:47:04;5.55;;;3.45;;
11191;SDS011;5652;48.406;10.820;2023-04-25T03:49:32;4.45;;;3.40;;
11191;SDS011;5652;48.406;10.820;2023-04-25T03:51:59;4.00;;;3.13;;
11191;SDS011;5652;48.406;10.820;2023-04-25T03:54:26;3.42;;;2.92;;
11191;SDS011;5652;48.406;10.820;2023-04-25T03:56:55;5.03;;;3.20;;
11191;SDS011;5652;48.406;10.820;2023-04-25T03:59:23;3.87;;;2.90;;
11191;SDS011;5652;48.406;10.820;2023-04-25T04:01:51;5.72;;;3.10;;
11191;SDS011;5652;48.406;10.820;2023-04-25T04:04:18;4.88;;;3.28;;
11191;SDS011;5652;48.406;10.820;2023-04-25T04:06:45;4.00;;;2.70;;
11191;SDS011;5652;48.406;10.820;2023-04-25T04:09:12;4.82;;;2.92;;
11191;SDS011;5652;48.406;10.820;2023-04-25T04:11:40;5.90;;;3.10;;
11191;SDS011;5652;48.406;10.820;2023-04-25T04:14:08;3.72;;;2.67;;
11191;SDS011;5652;48.406;10.820;2023-04-25T04:16:36;4.38;;;3.10;;
11191;SDS011;5652;48.406;10.820;2023-04-25T04:19:03;4.13;;;3.00;;
11191;SDS011;5652;48.406;10.820;2023-04-25T04:21:30;4.87;;;2.93;;
11191;SDS011;5652;48.406;10.820;2023-04-25T04:23:58;4.88;;;3.25;;
11191;SDS011;5652;48.406;10.820;2023-04-25T04:26:25;6.97;;;3.25;;
11191;SDS011;5652;48.406;10.820;2023-04-25T04:28:52;3.55;;;2.95;;
11191;SDS011;5652;48.406;10.820;2023-04-25T04:31:21;5.03;;;2.97;;
11191;SDS011;5652;48.406;10.820;2023-04-25T04:33:48;5.07;;;2.95;;
11191;SDS011;5652;48.406;10.820;2023-04-25T04:36:15;4.15;;;3.05;;
11191;SDS011;5652;48.406;10.820;2023-04-25T04:38:44;4.40;;;2.95;;
11191;SDS011;5652;48.406;10.820;2023-04-25T04:41:12;5.97;;;2.90;;
11191;SDS011;5652;48.406;10.820;2023-04-25T04:43:39;5.03;;;3.40;;
11191;SDS011;5652;48.406;10.820;2023-04-25T04:46:06;5.10;;;3.20;;
11191;SDS011;5652;48.406;10.820;2023-04-25T04:48:36;3.90;;;2.58;;
11191;SDS011;5652;48.406;10.820;2023-04-25T04:51:05;3.75;;;2.70;;
11191;SDS011;5652;48.406;10.820;2023-04-25T04:53:32;5.18;;;2.78;;
11191;SDS011;5652;48.406;10.820;2023-04-25T04:55:59;4.28;;;2.70;;
11191;SDS011;5652;48.406;10.820;2023-04-25T04:58:26;3.58;;;2.45;;
11191;SDS011;5652;48.406;10.820;2023-04-25T05:00:54;5.32;;;2.63;;
11191;SDS011;5652;48.406;10.820;2023-04-25T05:03:22;3.72;;;2.33;;
11191;SDS011;5652;48.406;10.820;2023-04-25T05:05:50;3.20;;;2.30;;
11191;SDS011;5652;48.406;10.820;2023-04-25T05:08:17;4.28;;;2.38;;
11191;SDS011;5652;48.406;10.820;2023-04-25T05:10:44;3.17;;;2.15;;
11191;SDS011;5652;48.406;10.820;2023-04-25T05:13:11;4.97;;;2.47;;
11191;SDS011;5652;48.406;10.820;2023-04-25T05:15:38;3.55;;;2.20;;
11191;SDS011;5652;48.406;10.820;2023-04-25T05:18:05;5.60;;;2.42;;
11191;SDS011;5652;48.406;10.820;2023-04-25T05:20:32;2.65;;;2.15;;
11191;SDS011;5652;48.406;10.820;2023-04-25T05:23:01;4.05;;;2.28;;
11191;SDS011;5652;48.406;10.820;2023-04-25T05:25:29;4.18;;;2.30;;
11191;SDS011;5652;48.406;10.820;2023-04-25T05:27:56;4.65;;;2.08;;
11191;SDS011;5652;48.406;10.820;2023-04-25T05:30:23;4.22;;;2.45;;
11191;SDS011;5652;48.406;10.820;2023-04-25T05:32:50;3.78;;;2.38;;
11191;SDS011;5652;48.406;10.820;2023-04-25T05:35:17;3.50;;;2.60;;
11191;SDS011;5652;48.406;10.820;2023-04-25T05:37:44;5.25;;;2.38;;
11191;SDS011;5652;48.406;10.820;2023-04-25T05:40:13;4.03;;;2.60;;
11191;SDS011;5652;48.406;10.820;2023-04-25T05:42:40;3.80;;;2.30;;
11191;SDS011;5652;48.406;10.820;2023-04-25T05:45:07;4.20;;;2.42;;
11191;SDS011;5652;48.406;10.820;2023-04-25T05:47:34;5.50;;;2.47;;
11191;SDS011;5652;48.406;10.820;2023-04-25T05:50:01;3.80;;;2.45;;
11191;SDS011;5652;48.406;10.820;2023-04-25T05:52:29;5.20;;;2.40;;
11191;SDS011;5652;48.406;10.820;2023-04-25T05:54:56;4.53;;;2.70;;
11191;SDS011;5652;48.406;10.820;2023-04-25T05:57:25;3.50;;;2.30;;
11191;SDS011;5652;48.406;10.820;2023-04-25T05:59:53;3.45;;;2.67;;
11191;SDS011;5652;48.406;10.820;2023-04-25T06:02:20;4.07;;;2.60;;
11191;SDS011;5652;48.406;10.820;2023-04-25T06:04:48;3.75;;;2.45;;
11191;SDS011;5652;48.406;10.820;2023-04-25T06:07:16;3.92;;;2.35;;
11191;SDS011;5652;48.406;10.820;2023-04-25T06:09:43;3.00;;;2.15;;
11191;SDS011;5652;48.406;10.820;2023-04-25T06:12:10;3.28;;;2.30;;
11191;SDS011;5652;48.406;10.820;2023-04-25T06:14:38;3.90;;;2.42;;
11191;SDS011;5652;48.406;10.820;2023-04-25T06:17:07;4.13;;;2.13;;
11191;SDS011;5652;48.406;10.820;2023-04-25T06:19:34;3.63;;;2.20;;
11191;SDS011;5652;48.406;10.820;2023-04-25T06:22:02;3.60;;;2.00;;
11191;SDS011;5652;48.406;10.820;2023-04-25T06:24:29;4.40;;;2.15;;
11191;SDS011;5652;48.406;10.820;2023-04-25T06:26:56;2.53;;;1.77;;
11191;SDS011;5652;48.406;10.820;2023-04-25T06:29:23;3.13;;;2.03;;
11191;SDS011;5652;48.406;10.820;2023-04-25T06:31:51;2.72;;;2.00;;
11191;SDS011;5652;48.406;10.820;2023-04-25T06:34:19;3.28;;;1.83;;
11191;SDS011;5652;48.406;10.820;2023-04-25T06:36:46;2.60;;;1.90;;
11191;SDS011;5652;48.406;10.820;2023-04-25T06:39:13;2.17;;;1.80;;
11191;SDS011;5652;48.406;10.820;2023-04-25T06:41:41;5.00;;;2.27;;
11191;SDS011;5652;48.406;10.820;2023-04-25T06:44:08;4.10;;;1.98;;
11191;SDS011;5652;48.406;10.820;2023-04-25T06:46:35;3.88;;;2.00;;
11191;SDS011;5652;48.406;10.820;2023-04-25T06:49:04;3.15;;;1.88;;
11191;SDS011;5652;48.406;10.820;2023-04-25T06:51:31;4.43;;;1.95;;
11191;SDS011;5652;48.406;10.820;2023-04-25T06:53:59;4.80;;;2.10;;
11191;SDS011;5652;48.406;10.820;2023-04-25T06:56:26;2.47;;;2.00;;
11191;SDS011;5652;48.406;10.820;2023-04-25T06:58:54;3.85;;;1.92;;
11191;SDS011;5652;48.406;10.820;2023-04-25T07:01:21;3.00;;;1.65;;
11191;SDS011;5652;48.406;10.820;2023-04-25T07:03:49;2.05;;;1.42;;
11191;SDS011;5652;48.406;10.820;2023-04-25T07:06:17;3.33;;;1.90;;
11191;SDS011;5652;48.406;10.820;2023-04-25T07:08:44;3.38;;;1.85;;
11191;SDS011;5652;48.406;10.820;2023-04-25T07:11:11;3.47;;;1.87;;
11191;SDS011;5652;48.406;10.820;2023-04-25T07:13:38;3.35;;;1.98;;
11191;SDS011;5652;48.406;10.820;2023-04-25T07:16:06;2.78;;;1.98;;
11191;SDS011;5652;48.406;10.820;2023-04-25T07:18:33;3.28;;;1.90;;
11191;SDS011;5652;48.406;10.820;2023-04-25T07:21:00;2.55;;;1.73;;
11191;SDS011;5652;48.406;10.820;2023-04-25T07:23:28;4.53;;;2.10;;
11191;SDS011;5652;48.406;10.820;2023-04-25T07:25:56;3.50;;;1.80;;
11191;SDS011;5652;48.406;10.820;2023-04-25T07:28:23;1.90;;;1.52;;
11191;SDS011;5652;48.406;10.820;2023-04-25T07:30:50;2.33;;;2.10;;
11191;SDS011;5652;48.406;10.820;2023-04-25T07:33:17;2.58;;;1.70;;
11191;SDS011;5652;48.406;10.820;2023-04-25T07:35:45;1.90;;;1.40;;
11191;SDS011;5652;48.406;10.820;2023-04-25T07:38:12;3.10;;;1.67;;
11191;SDS011;5652;48.406;10.820;2023-04-25T07:40:41;4.00;;;1.90;;
11191;SDS011;5652;48.406;10.820;2023-04-25T07:43:08;2.75;;;1.70;;
11191;SDS011;5652;48.406;10.820;2023-04-25T07:45:37;3.53;;;1.60;;
11191;SDS011;5652;48.406;10.820;2023-04-25T07:48:04;3.30;;;1.65;;
11191;SDS011;5652;48.406;10.820;2023-04-25T07:50:31;4.00;;;1.65;;
11191;SDS011;5652;48.406;10.820;2023-04-25T07:52:58;3.10;;;1.70;;
11191;SDS011;5652;48.406;10.820;2023-04-25T07:55:25;3.13;;;1.83;;
11191;SDS011;5652;48.406;10.820;2023-04-25T07:57:54;2.78;;;1.77;;
11191;SDS011;5652;48.406;10.820;2023-04-25T08:00:21;2.83;;;1.80;;
11191;SDS011;5652;48.406;10.820;2023-04-25T08:02:48;2.33;;;1.80;;
11191;SDS011;5652;48.406;10.820;2023-04-25T08:05:16;2.53;;;1.60;;
11191;SDS011;5652;48.406;10.820;2023-04-25T08:07:43;3.10;;;1.70;;
11191;SDS011;5652;48.406;10.820;2023-04-25T08:10:10;3.00;;;1.60;;
11191;SDS011;5652;48.406;10.820;2023-04-25T08:12:37;3.13;;;1.90;;
11191;SDS011;5652;48.406;10.820;2023-04-25T08:15:06;3.30;;;1.60;;
11191;SDS011;5652;48.406;10.820;2023-04-25T08:17:34;3.50;;;1.70;;
11191;SDS011;5652;48.406;10.820;2023-04-25T08:20:01;3.30;;;1.80;;
11191;SDS011;5652;48.406;10.820;2023-04-25T08:22:30;2.10;;;1.90;;
11191;SDS011;5652;48.406;10.820;2023-04-25T08:24:57;2.78;;;1.70;;
11191;SDS011;5652;48.406;10.820;2023-04-25T08:27:24;3.90;;;1.70;;
11191;SDS011;5652;48.406;10.820;2023-04-25T08:29:51;3.53;;;1.90;;
11191;SDS011;5652;48.406;10.820;2023-04-25T08:32:20;3.13;;;1.88;;
11191;SDS011;5652;48.406;10.820;2023-04-25T08:34:47;2.83;;;1.60;;
11191;SDS011;5652;48.406;10.820;2023-04-25T08:37:16;2.33;;;1.27;;
11191;SDS011;5652;48.406;10.820;2023-04-25T08:39:44;2.45;;;1.20;;
11191;SDS011;5652;48.406;10.820;2023-04-25T08:42:12;1.45;;;1.30;;
11191;SDS011;5652;48.406;10.820;2023-04-25T08:44:39;3.75;;;1.88;;
11191;SDS011;5652;48.406;10.820;2023-04-25T08:47:06;1.88;;;1.45;;
11191;SDS011;5652;48.406;10.820;2023-04-25T08:49:34;2.33;;;1.30;;
11191;SDS011;5652;48.406;10.820;2023-04-25T08:52:02;3.53;;;1.50;;
11191;SDS011;5652;48.406;10.820;2023-04-25T08:54:30;2.70;;;1.40;;
11191;SDS011;5652;48.406;10.820;2023-04-25T08:56:59;2.88;;;1.58;;
11191;SDS011;5652;48.406;10.820;2023-04-25T08:59:28;1.70;;;1.30;;
11191;SDS011;5652;48.406;10.820;2023-04-25T09:01:56;2.08;;;1.17;;
11191;SDS011;5652;48.406;10.820;2023-04-25T09:04:23;1.98;;;1.42;;
11191;SDS011;5652;48.406;10.820;2023-04-25T09:06:52;3.10;;;1.15;;
11191;SDS011;5652;48.406;10.820;2023-04-25T09:09:19;3.03;;;1.65;;
11191;SDS011;5652;48.406;10.820;2023-04-25T09:11:46;4.20;;;1.50;;
11191;SDS011;5652;48.406;10.820;2023-04-25T09:14:14;1.83;;;1.40;;
11191;SDS011;5652;48.406;10.820;2023-04-25T09:16:57;2.72;;;1.83;;
11191;SDS011;5652;48.406;10.820;2023-04-25T09:19:25;5.10;;;1.30;;
11191;SDS011;5652;48.406;10.820;2023-04-25T09:21:55;1.40;;;1.30;;
11191;SDS011;5652;48.406;10.820;2023-04-25T09:24:29;1.70;;;1.38;;
11191;SDS011;5652;48.406;10.820;2023-04-25T09:26:57;2.53;;;1.38;;
11191;SDS011;5652;48.406;10.820;2023-04-25T09:29:28;5.85;;;1.55;;
11191;SDS011;5652;48.406;10.820;2023-04-25T09:32:08;2.80;;;1.90;;
11191;SDS011;5652;48.406;10.820;2023-04-25T09:34:38;4.28;;;1.77;;
11191;SDS011;5652;48.406;10.820;2023-04-25T09:37:07;2.75;;;1.75;;
11191;SDS011;5652;48.406;10.820;2023-04-25T09:39:35;2.58;;;1.50;;
11191;SDS011;5652;48.406;10.820;2023-04-25T09:42:03;2.72;;;1.90;;
11191;SDS011;5652;48.406;10.820;2023-04-25T09:44:30;2.20;;;1.53;;
11191;SDS011;5652;48.406;10.820;2023-04-25T09:46:57;4.70;;;2.15;;
11191;SDS011;5652;48.406;10.820;2023-04-25T09:49:25;4.55;;;2.58;;
11191;SDS011;5652;48.406;10.820;2023-04-25T09:51:55;2.50;;;2.03;;
11191;SDS011;5652;48.406;10.820;2023-04-25T09:54:24;5.35;;;2.75;;
11191;SDS011;5652;48.406;10.820;2023-04-25T09:56:52;3.97;;;2.03;;
11191;SDS011;5652;48.406;10.820;2023-04-25T09:59:20;3.50;;;1.98;;
11191;SDS011;5652;48.406;10.820;2023-04-25T10:01:48;3.13;;;2.10;;
11191;SDS011;5652;48.406;10.820;2023-04-25T10:04:16;2.55;;;1.85;;
11191;SDS011;5652;48.406;10.820;2023-04-25T10:06:48;3.08;;;1.80;;
11191;SDS011;5652;48.406;10.820;2023-04-25T10:09:15;3.30;;;1.80;;
11191;SDS011;5652;48.406;10.820;2023-04-25T10:11:45;3.20;;;1.70;;
11191;SDS011;5652;48.406;10.820;2023-04-25T10:14:12;2.67;;;1.70;;
11191;SDS011;5652;48.406;10.820;2023-04-25T10:16:40;2.67;;;1.65;;
11191;SDS011;5652;48.406;10.820;2023-04-25T10:19:08;3.08;;;1.50;;
11191;SDS011;5652;48.406;10.820;2023-04-25T10:21:36;2.88;;;1.80;;
11191;SDS011;5652;48.406;10.820;2023-04-25T10:24:07;2.10;;;1.58;;
11191;SDS011;5652;48.406;10.820;2023-04-25T10:26:45;2.30;;;1.42;;
11191;SDS011;5652;48.406;10.820;2023-04-25T10:29:12;2.05;;;1.60;;
11191;SDS011;5652;48.406;10.820;2023-04-25T10:31:47;3.38;;;1.58;;
11191;SDS011;5652;48.406;10.820;2023-04-25T10:34:15;1.60;;;1.20;;
11191;SDS011;5652;48.406;10.820;2023-04-25T10:36:42;2.17;;;1.27;;
11191;SDS011;5652;48.406;10.820;2023-04-25T10:39:10;2.03;;;1.33;;
11191;SDS011;5652;48.406;10.820;2023-04-25T10:41:47;2.38;;;1.35;;
11191;SDS011;5652;48.406;10.820;2023-04-25T10:44:15;1.80;;;1.30;;
11191;SDS011;5652;48.406;10.820;2023-04-25T10:46:42;1.58;;;1.35;;
11191;SDS011;5652;48.406;10.820;2023-04-25T10:49:10;1.48;;;1.35;;
11191;SDS011;5652;48.406;10.820;2023-04-25T10:54:39;2.70;;;1.50;;
11191;SDS011;5652;48.406;10.820;2023-04-25T10:57:08;3.10;;;1.50;;
11191;SDS011;5652;48.406;10.820;2023-04-25T10:59:52;2.33;;;1.50;;
11191;SDS011;5652;48.406;10.820;2023-04-25T11:02:19;4.57;;;1.63;;
11191;SDS011;5652;48.406;10.820;2023-04-25T11:04:46;2.60;;;1.80;;
11191;SDS011;5652;48.406;10.820;2023-04-25T11:07:17;2.72;;;1.60;;
11191;SDS011;5652;48.406;10.820;2023-04-25T11:09:48;4.10;;;1.73;;
11191;SDS011;5652;48.406;10.820;2023-04-25T11:12:17;2.15;;;1.65;;
11191;SDS011;5652;48.406;10.820;2023-04-25T11:14:44;2.63;;;1.73;;
11191;SDS011;5652;48.406;10.820;2023-04-25T11:17:11;2.70;;;1.77;;
11191;SDS011;5652;48.406;10.820;2023-04-25T11:19:38;2.50;;;1.60;;
11191;SDS011;5652;48.406;10.820;2023-04-25T11:22:05;2.22;;;1.60;;
11191;SDS011;5652;48.406;10.820;2023-04-25T11:24:33;2.92;;;1.77;;
11191;SDS011;5652;48.406;10.820;2023-04-25T11:27:01;2.38;;;1.90;;
11191;SDS011;5652;48.406;10.820;2023-04-25T11:29:30;3.90;;;1.90;;
11191;SDS011;5652;48.406;10.820;2023-04-25T11:31:58;2.63;;;2.20;;
11191;SDS011;5652;48.406;10.820;2023-04-25T11:34:26;2.30;;;1.93;;
11191;SDS011;5652;48.406;10.820;2023-04-25T11:36:55;2.72;;;1.63;;
11191;SDS011;5652;48.406;10.820;2023-04-25T11:39:23;1.50;;;1.30;;
11191;SDS011;5652;48.406;10.820;2023-04-25T11:41:50;1.65;;;1.35;;
11191;SDS011;5652;48.406;10.820;2023-04-25T11:44:18;1.73;;;1.23;;
11191;SDS011;5652;48.406;10.820;2023-04-25T11:46:47;1.30;;;1.20;;
11191;SDS011;5652;48.406;10.820;2023-04-25T11:49:14;1.67;;;1.50;;
11191;SDS011;5652;48.406;10.820;2023-04-25T11:51:44;2.40;;;1.80;;
11191;SDS011;5652;48.406;10.820;2023-04-25T11:54:11;2.20;;;1.73;;
11191;SDS011;5652;48.406;10.820;2023-04-25T11:56:40;2.60;;;1.80;;
11191;SDS011;5652;48.406;10.820;2023-04-25T11:59:08;3.10;;;1.90;;
11191;SDS011;5652;48.406;10.820;2023-04-25T12:01:35;4.57;;;2.20;;
11191;SDS011;5652;48.406;10.820;2023-04-25T12:04:14;2.45;;;2.10;;
11191;SDS011;5652;48.406;10.820;2023-04-25T12:06:42;3.25;;;2.55;;
11191;SDS011;5652;48.406;10.820;2023-04-25T12:09:11;4.13;;;2.70;;
11191;SDS011;5652;48.406;10.820;2023-04-25T12:11:42;3.70;;;2.50;;
11191;SDS011;5652;48.406;10.820;2023-04-25T12:14:09;3.50;;;2.55;;
11191;SDS011;5652;48.406;10.820;2023-04-25T12:16:43;3.35;;;2.70;;
11191;SDS011;5652;48.406;10.820;2023-04-25T12:19:16;2.75;;;2.55;;
11191;SDS011;5652;48.406;10.820;2023-04-25T12:21:47;2.13;;;1.80;;
11191;SDS011;5652;48.406;10.820;2023-04-25T12:24:20;2.50;;;1.95;;
11191;SDS011;5652;48.406;10.820;2023-04-25T12:26:50;2.13;;;1.93;;
11191;SDS011;5652;48.406;10.820;2023-04-25T12:29:18;2.28;;;2.05;;
11191;SDS011;5652;48.406;10.820;2023-04-25T12:31:46;2.38;;;1.70;;
11191;SDS011;5652;48.406;10.820;2023-04-25T12:34:14;2.90;;;1.60;;
11191;SDS011;5652;48.406;10.820;2023-04-25T12:36:41;1.50;;;1.40;;
11191;SDS011;5652;48.406;10.820;2023-04-25T12:39:13;2.60;;;1.60;;
11191;SDS011;5652;48.406;10.820;2023-04-25T12:41:40;1.50;;;1.40;;
11191;SDS011;5652;48.406;10.820;2023-04-25T12:44:08;2.03;;;1.47;;
11191;SDS011;5652;48.406;10.820;2023-04-25T12:46:35;2.78;;;1.58;;
11191;SDS011;5652;48.406;10.820;2023-04-25T12:49:02;3.30;;;2.07;;
11191;SDS011;5652;48.406;10.820;2023-04-25T12:51:35;3.10;;;2.20;;
11191;SDS011;5652;48.406;10.820;2023-04-25T12:54:03;2.60;;;2.30;;
11191;SDS011;5652;48.406;10.820;2023-04-25T12:56:30;1.95;;;1.75;;
11191;SDS011;5652;48.406;10.820;2023-04-25T12:58:58;2.70;;;1.30;;
11191;SDS011;5652;48.406;10.820;2023-04-25T13:01:27;1.92;;;1.35;;
11191;SDS011;5652;48.406;10.820;2023-04-25T13:03:54;1.80;;;1.50;;
11191;SDS011;5652;48.406;10.820;2023-04-25T13:06:23;1.90;;;1.40;;
11191;SDS011;5652;48.406;10.820;2023-04-25T13:08:52;2.00;;;1.50;;
11191;SDS011;5652;48.406;10.820;2023-04-25T13:11:19;1.75;;;1.40;;
11191;SDS011;5652;48.406;10.820;2023-04-25T13:13:46;1.35;;;1.20;;
11191;SDS011;5652;48.406;10.820;2023-04-25T13:16:21;1.43;;;1.30;;
11191;SDS011;5652;48.406;10.820;2023-04-25T13:18:55;1.55;;;1.40;;
11191;SDS011;5652;48.406;10.820;2023-04-25T13:21:25;1.60;;;1.50;;
11191;SDS011;5652;48.406;10.820;2023-04-25T13:23:53;2.15;;;1.50;;
11191;SDS011;5652;48.406;10.820;2023-04-25T13:26:28;2.53;;;1.93;;
11191;SDS011;5652;48.406;10.820;2023-04-25T13:28:55;2.35;;;1.65;;
11191;SDS011;5652;48.406;10.820;2023-04-25T13:31:23;2.15;;;1.60;;
11191;SDS011;5652;48.406;10.820;2023-04-25T13:33:50;3.22;;;2.00;;
11191;SDS011;5652;48.406;10.820;2023-04-25T13:36:18;1.83;;;1.70;;
11191;SDS011;5652;48.406;10.820;2023-04-25T13:38:45;2.85;;;1.88;;
11191;SDS011;5652;48.406;10.820;2023-04-25T13:41:15;2.28;;;1.85;;
11191;SDS011;5652;48.406;10.820;2023-04-25T13:43:44;2.22;;;1.80;;
11191;SDS011;5652;48.406;10.820;2023-04-25T13:46:13;3.05;;;2.13;;
11191;SDS011;5652;48.406;10.820;2023-04-25T13:48:42;2.63;;;2.10;;
11191;SDS011;5652;48.406;10.820;2023-04-25T13:51:14;2.50;;;2.25;;
11191;SDS011;5652;48.406;10.820;2023-04-25T13:53:42;1.92;;;1.70;;
11191;SDS011;5652;48.406;10.820;2023-04-25T13:56:10;2.90;;;1.98;;
11191;SDS011;5652;48.406;10.820;2023-04-25T13:58:39;3.40;;;2.22;;
11191;SDS011;5652;48.406;10.820;2023-04-25T14:01:06;2.90;;;2.30;;
11191;SDS011;5652;48.406;10.820;2023-04-25T14:03:33;2.85;;;2.55;;
11191;SDS011;5652;48.406;10.820;2023-04-25T14:06:00;2.78;;;2.42;;
11191;SDS011;5652;48.406;10.820;2023-04-25T14:08:27;3.17;;;2.30;;
11191;SDS011;5652;48.406;10.820;2023-04-25T14:11:00;2.92;;;2.50;;
11191;SDS011;5652;48.406;10.820;2023-04-25T14:13:39;2.57;;;2.00;;
11191;SDS011;5652;48.406;10.820;2023-04-25T14:16:06;2.72;;;2.33;;
11191;SDS011;5652;48.406;10.820;2023-04-25T14:18:34;3.15;;;2.20;;
11191;SDS011;5652;48.406;10.820;2023-04-25T14:21:01;3.05;;;2.28;;
11191;SDS011;5652;48.406;10.820;2023-04-25T14:23:29;2.63;;;2.28;;
11191;SDS011;5652;48.406;10.820;2023-04-25T14:25:57;3.50;;;2.75;;
11191;SDS011;5652;48.406;10.820;2023-04-25T14:28:24;3.27;;;2.67;;
11191;SDS011;5652;48.406;10.820;2023-04-25T14:30:53;2.67;;;2.45;;
11191;SDS011;5652;48.406;10.820;2023-04-25T14:33:20;2.78;;;2.45;;
11191;SDS011;5652;48.406;10.820;2023-04-25T14:35:48;3.53;;;2.77;;
11191;SDS011;5652;48.406;10.820;2023-04-25T14:38:17;3.00;;;2.70;;
11191;SDS011;5652;48.406;10.820;2023-04-25T14:40:50;3.07;;;2.70;;
11191;SDS011;5652;48.406;10.820;2023-04-25T14:43:18;3.88;;;3.30;;
11191;SDS011;5652;48.406;10.820;2023-04-25T14:45:46;3.40;;;2.70;;
11191;SDS011;5652;48.406;10.820;2023-04-25T14:48:15;4.93;;;2.80;;
11191;SDS011;5652;48.406;10.820;2023-04-25T14:50:44;4.38;;;3.28;;
11191;SDS011;5652;48.406;10.820;2023-04-25T14:53:11;3.80;;;3.00;;
11191;SDS011;5652;48.406;10.820;2023-04-25T14:55:38;3.63;;;2.90;;